sensor_id;sensor_type;location;lat;lon;timestamp;P1;durP1;ratioP1;P2;durP2;ratioP2
79373;SDS011;68844;53.128;17.958;2023-10-19T00:01:18;76.90;;;37.50;;
79373;SDS011;68844;53.128;17.958;2023-10-19T00:03:44;82.40;;;37.70;;
79373;SDS011;68844;53.128;17.958;2023-10-19T00:06:11;84.50;;;38.90;;
79373;SDS011;68844;53.128;17.958;2023-10-19T00:08:38;83.20;;;38.30;;
79373;SDS011;68844;53.128;17.958;2023-10-19T00:11:08;81.70;;;39.20;;
79373;SDS011;68844;53.128;17.958;2023-10-19T00:13:36;80.60;;;34.30;;
79373;SDS011;68844;53.128;17.958;2023-10-19T00:16:04;73.80;;;36.90;;
79373;SDS011;68844;53.128;17.958;2023-10-19T00:18:43;75.70;;;36.20;;
79373;SDS011;68844;53.128;17.958;2023-10-19T00:21:10;74.10;;;34.30;;
79373;SDS011;68844;53.128;17.958;2023-10-19T00:23:47;73.70;;;33.40;;
79373;SDS011;68844;53.128;17.958;2023-10-19T00:26:15;75.90;;;34.40;;
79373;SDS011;68844;53.128;17.958;2023-10-19T00:28:51;76.40;;;35.60;;
79373;SDS011;68844;53.128;17.958;2023-10-19T00:31:22;86.60;;;37.90;;
79373;SDS011;68844;53.128;17.958;2023-10-19T00:33:50;79.70;;;36.90;;
79373;SDS011;68844;53.128;17.958;2023-10-19T00:36:21;78.00;;;34.40;;
79373;SDS011;68844;53.128;17.958;2023-10-19T00:38:49;77.60;;;33.20;;
79373;SDS011;68844;53.128;17.958;2023-10-19T00:41:17;78.80;;;34.40;;
79373;SDS011;68844;53.128;17.958;2023-10-19T00:43:48;86.10;;;36.70;;
79373;SDS011;68844;53.128;17.958;2023-10-19T00:46:16;75.20;;;35.20;;
79373;SDS011;68844;53.128;17.958;2023-10-19T00:48:47;77.90;;;34.10;;
79373;SDS011;68844;53.128;17.958;2023-10-19T00:51:23;81.20;;;32.70;;
79373;SDS011;68844;53.128;17.958;2023-10-19T00:54:06;76.10;;;33.00;;
79373;SDS011;68844;53.128;17.958;2023-10-19T00:56:37;75.00;;;31.60;;
79373;SDS011;68844;53.128;17.958;2023-10-19T00:59:07;89.80;;;35.00;;
79373;SDS011;68844;53.128;17.958;2023-10-19T01:01:47;76.60;;;32.60;;
79373;SDS011;68844;53.128;17.958;2023-10-19T01:04:16;82.90;;;32.50;;
79373;SDS011;68844;53.128;17.958;2023-10-19T01:06:58;79.90;;;31.70;;
79373;SDS011;68844;53.128;17.958;2023-10-19T01:09:38;73.80;;;29.90;;
79373;SDS011;68844;53.128;17.958;2023-10-19T01:12:06;81.20;;;31.70;;
79373;SDS011;68844;53.128;17.958;2023-10-19T01:15:07;80.90;;;30.30;;
79373;SDS011;68844;53.128;17.958;2023-10-19T01:17:56;74.50;;;29.30;;
79373;SDS011;68844;53.128;17.958;2023-10-19T01:20:26;78.00;;;29.00;;
79373;SDS011;68844;53.128;17.958;2023-10-19T01:22:56;77.40;;;30.00;;
79373;SDS011;68844;53.128;17.958;2023-10-19T01:28:12;74.20;;;29.00;;
79373;SDS011;68844;53.128;17.958;2023-10-19T01:30:43;73.50;;;29.60;;
79373;SDS011;68844;53.128;17.958;2023-10-19T01:33:11;73.10;;;28.80;;
79373;SDS011;68844;53.128;17.958;2023-10-19T01:35:42;71.90;;;26.70;;
79373;SDS011;68844;53.128;17.958;2023-10-19T01:38:27;68.10;;;27.00;;
79373;SDS011;68844;53.128;17.958;2023-10-19T01:40:58;67.90;;;26.70;;
79373;SDS011;68844;53.128;17.958;2023-10-19T01:43:28;71.20;;;29.80;;
79373;SDS011;68844;53.128;17.958;2023-10-19T01:45:59;65.60;;;26.80;;
79373;SDS011;68844;53.128;17.958;2023-10-19T01:48:42;62.80;;;25.60;;
79373;SDS011;68844;53.128;17.958;2023-10-19T01:51:11;62.10;;;25.20;;
79373;SDS011;68844;53.128;17.958;2023-10-19T01:53:40;66.10;;;23.70;;
79373;SDS011;68844;53.128;17.958;2023-10-19T01:56:10;55.20;;;24.60;;
79373;SDS011;68844;53.128;17.958;2023-10-19T01:58:38;60.60;;;24.70;;
79373;SDS011;68844;53.128;17.958;2023-10-19T02:01:06;60.80;;;24.80;;
79373;SDS011;68844;53.128;17.958;2023-10-19T02:03:40;53.70;;;22.50;;
79373;SDS011;68844;53.128;17.958;2023-10-19T02:06:09;57.00;;;23.60;;
79373;SDS011;68844;53.128;17.958;2023-10-19T02:08:45;56.80;;;23.00;;
79373;SDS011;68844;53.128;17.958;2023-10-19T02:13:45;51.10;;;21.10;;
79373;SDS011;68844;53.128;17.958;2023-10-19T02:16:18;51.90;;;21.50;;
79373;SDS011;68844;53.128;17.958;2023-10-19T02:18:49;55.50;;;21.70;;
79373;SDS011;68844;53.128;17.958;2023-10-19T02:21:16;56.00;;;22.00;;
79373;SDS011;68844;53.128;17.958;2023-10-19T02:23:53;42.50;;;19.40;;
79373;SDS011;68844;53.128;17.958;2023-10-19T02:26:20;47.80;;;19.80;;
79373;SDS011;68844;53.128;17.958;2023-10-19T02:28:52;49.60;;;19.40;;
79373;SDS011;68844;53.128;17.958;2023-10-19T02:31:19;43.70;;;20.20;;
79373;SDS011;68844;53.128;17.958;2023-10-19T02:33:51;49.80;;;20.60;;
79373;SDS011;68844;53.128;17.958;2023-10-19T02:36:28;39.50;;;18.90;;
79373;SDS011;68844;53.128;17.958;2023-10-19T02:38:57;45.30;;;18.70;;
79373;SDS011;68844;53.128;17.958;2023-10-19T02:41:25;40.10;;;18.80;;
79373;SDS011;68844;53.128;17.958;2023-10-19T02:43:53;44.70;;;19.90;;
79373;SDS011;68844;53.128;17.958;2023-10-19T02:46:50;50.80;;;19.30;;
79373;SDS011;68844;53.128;17.958;2023-10-19T02:49:21;41.60;;;18.10;;
79373;SDS011;68844;53.128;17.958;2023-10-19T02:51:49;37.60;;;17.70;;
79373;SDS011;68844;53.128;17.958;2023-10-19T02:54:19;40.70;;;19.00;;
79373;SDS011;68844;53.128;17.958;2023-10-19T02:56:58;42.60;;;18.20;;
79373;SDS011;68844;53.128;17.958;2023-10-19T02:59:26;34.70;;;16.30;;
79373;SDS011;68844;53.128;17.958;2023-10-19T03:01:59;38.60;;;16.60;;
79373;SDS011;68844;53.128;17.958;2023-10-19T03:04:33;38.40;;;16.00;;
79373;SDS011;68844;53.128;17.958;2023-10-19T03:07:03;36.00;;;17.00;;
79373;SDS011;68844;53.128;17.958;2023-10-19T03:09:31;33.20;;;15.00;;
79373;SDS011;68844;53.128;17.958;2023-10-19T03:12:14;36.40;;;16.90;;
79373;SDS011;68844;53.128;17.958;2023-10-19T03:14:42;42.60;;;17.40;;
79373;SDS011;68844;53.128;17.958;2023-10-19T03:17:09;42.50;;;18.80;;
79373;SDS011;68844;53.128;17.958;2023-10-19T03:19:37;32.70;;;15.80;;
79373;SDS011;68844;53.128;17.958;2023-10-19T03:22:05;26.20;;;15.30;;
79373;SDS011;68844;53.128;17.958;2023-10-19T03:24:36;31.20;;;16.00;;
79373;SDS011;68844;53.128;17.958;2023-10-19T03:29:52;37.40;;;16.90;;
79373;SDS011;68844;53.128;17.958;2023-10-19T03:32:22;29.00;;;14.60;;
79373;SDS011;68844;53.128;17.958;2023-10-19T03:34:53;27.60;;;15.80;;
79373;SDS011;68844;53.128;17.958;2023-10-19T03:37:26;27.50;;;14.90;;
79373;SDS011;68844;53.128;17.958;2023-10-19T03:39:57;30.80;;;14.90;;
79373;SDS011;68844;53.128;17.958;2023-10-19T03:42:25;30.50;;;16.20;;
79373;SDS011;68844;53.128;17.958;2023-10-19T03:44:56;22.20;;;13.30;;
79373;SDS011;68844;53.128;17.958;2023-10-19T03:47:25;25.50;;;13.70;;
79373;SDS011;68844;53.128;17.958;2023-10-19T03:50:03;28.30;;;15.00;;
79373;SDS011;68844;53.128;17.958;2023-10-19T03:52:41;26.10;;;15.00;;
79373;SDS011;68844;53.128;17.958;2023-10-19T03:55:10;31.00;;;15.70;;
79373;SDS011;68844;53.128;17.958;2023-10-19T03:57:49;25.80;;;14.30;;
79373;SDS011;68844;53.128;17.958;2023-10-19T04:00:22;30.00;;;14.60;;
79373;SDS011;68844;53.128;17.958;2023-10-19T04:02:56;31.30;;;15.50;;
79373;SDS011;68844;53.128;17.958;2023-10-19T04:05:25;32.20;;;16.70;;
79373;SDS011;68844;53.128;17.958;2023-10-19T04:07:55;27.40;;;16.00;;
79373;SDS011;68844;53.128;17.958;2023-10-19T04:10:27;25.50;;;14.60;;
79373;SDS011;68844;53.128;17.958;2023-10-19T04:13:02;26.10;;;15.90;;
79373;SDS011;68844;53.128;17.958;2023-10-19T04:15:31;38.30;;;17.80;;
79373;SDS011;68844;53.128;17.958;2023-10-19T04:18:01;31.30;;;16.50;;
79373;SDS011;68844;53.128;17.958;2023-10-19T04:23:22;26.30;;;12.50;;
79373;SDS011;68844;53.128;17.958;2023-10-19T04:26:02;30.80;;;15.40;;
79373;SDS011;68844;53.128;17.958;2023-10-19T04:28:48;33.70;;;17.20;;
79373;SDS011;68844;53.128;17.958;2023-10-19T04:31:17;34.00;;;17.70;;
79373;SDS011;68844;53.128;17.958;2023-10-19T04:33:46;26.20;;;13.60;;
79373;SDS011;68844;53.128;17.958;2023-10-19T04:36:15;38.40;;;19.30;;
79373;SDS011;68844;53.128;17.958;2023-10-19T04:38:46;29.10;;;16.50;;
79373;SDS011;68844;53.128;17.958;2023-10-19T04:48:28;31.20;;;16.80;;
79373;SDS011;68844;53.128;17.958;2023-10-19T04:50:57;38.20;;;18.40;;
79373;SDS011;68844;53.128;17.958;2023-10-19T04:53:24;16.30;;;7.90;;
79373;SDS011;68844;53.128;17.958;2023-10-19T04:55:50;32.70;;;16.00;;
79373;SDS011;68844;53.128;17.958;2023-10-19T04:58:17;29.10;;;15.10;;
79373;SDS011;68844;53.128;17.958;2023-10-19T05:00:44;24.50;;;12.40;;
79373;SDS011;68844;53.128;17.958;2023-10-19T05:03:10;31.70;;;17.10;;
79373;SDS011;68844;53.128;17.958;2023-10-19T05:05:42;35.80;;;17.90;;
79373;SDS011;68844;53.128;17.958;2023-10-19T05:08:09;29.90;;;17.60;;
79373;SDS011;68844;53.128;17.958;2023-10-19T05:10:35;28.40;;;17.00;;
79373;SDS011;68844;53.128;17.958;2023-10-19T05:13:02;30.70;;;17.10;;
79373;SDS011;68844;53.128;17.958;2023-10-19T05:15:29;33.90;;;17.90;;
79373;SDS011;68844;53.128;17.958;2023-10-19T05:17:56;28.60;;;14.80;;
79373;SDS011;68844;53.128;17.958;2023-10-19T05:20:23;19.60;;;10.40;;
79373;SDS011;68844;53.128;17.958;2023-10-19T05:22:50;32.80;;;16.50;;
79373;SDS011;68844;53.128;17.958;2023-10-19T05:25:16;36.50;;;17.40;;
79373;SDS011;68844;53.128;17.958;2023-10-19T05:27:43;32.00;;;18.10;;
79373;SDS011;68844;53.128;17.958;2023-10-19T05:30:12;29.10;;;17.60;;
79373;SDS011;68844;53.128;17.958;2023-10-19T05:32:38;35.00;;;17.70;;
79373;SDS011;68844;53.128;17.958;2023-10-19T05:35:05;21.90;;;13.10;;
79373;SDS011;68844;53.128;17.958;2023-10-19T05:37:32;36.60;;;16.70;;
79373;SDS011;68844;53.128;17.958;2023-10-19T05:39:58;30.70;;;17.40;;
79373;SDS011;68844;53.128;17.958;2023-10-19T05:42:25;34.50;;;17.80;;
79373;SDS011;68844;53.128;17.958;2023-10-19T05:44:54;29.50;;;17.60;;
79373;SDS011;68844;53.128;17.958;2023-10-19T05:47:21;32.10;;;15.90;;
79373;SDS011;68844;53.128;17.958;2023-10-19T05:49:50;31.10;;;16.80;;
79373;SDS011;68844;53.128;17.958;2023-10-19T05:52:16;28.50;;;17.40;;
79373;SDS011;68844;53.128;17.958;2023-10-19T05:54:43;28.40;;;14.10;;
79373;SDS011;68844;53.128;17.958;2023-10-19T05:57:09;29.00;;;15.50;;
79373;SDS011;68844;53.128;17.958;2023-10-19T05:59:36;22.10;;;12.50;;
79373;SDS011;68844;53.128;17.958;2023-10-19T06:02:03;25.70;;;14.80;;
79373;SDS011;68844;53.128;17.958;2023-10-19T06:04:33;28.30;;;12.60;;
79373;SDS011;68844;53.128;17.958;2023-10-19T06:07:00;26.60;;;14.60;;
79373;SDS011;68844;53.128;17.958;2023-10-19T06:09:26;35.40;;;16.60;;
79373;SDS011;68844;53.128;17.958;2023-10-19T06:11:55;21.10;;;12.50;;
79373;SDS011;68844;53.128;17.958;2023-10-19T06:14:22;19.60;;;10.40;;
79373;SDS011;68844;53.128;17.958;2023-10-19T06:16:48;25.40;;;14.40;;
79373;SDS011;68844;53.128;17.958;2023-10-19T06:19:15;26.60;;;15.60;;
79373;SDS011;68844;53.128;17.958;2023-10-19T06:21:42;26.90;;;15.00;;
79373;SDS011;68844;53.128;17.958;2023-10-19T06:24:09;24.70;;;11.00;;
79373;SDS011;68844;53.128;17.958;2023-10-19T06:26:41;21.60;;;11.20;;
79373;SDS011;68844;53.128;17.958;2023-10-19T06:29:09;26.30;;;15.20;;
79373;SDS011;68844;53.128;17.958;2023-10-19T06:31:36;24.50;;;12.10;;
79373;SDS011;68844;53.128;17.958;2023-10-19T06:34:03;27.30;;;13.90;;
79373;SDS011;68844;53.128;17.958;2023-10-19T06:36:30;23.30;;;13.00;;
79373;SDS011;68844;53.128;17.958;2023-10-19T06:38:57;28.60;;;15.40;;
79373;SDS011;68844;53.128;17.958;2023-10-19T06:41:24;19.20;;;10.40;;
79373;SDS011;68844;53.128;17.958;2023-10-19T06:43:50;27.50;;;13.50;;
79373;SDS011;68844;53.128;17.958;2023-10-19T06:46:17;24.50;;;12.80;;
79373;SDS011;68844;53.128;17.958;2023-10-19T06:48:44;24.60;;;14.10;;
79373;SDS011;68844;53.128;17.958;2023-10-19T06:51:11;26.90;;;13.80;;
79373;SDS011;68844;53.128;17.958;2023-10-19T06:53:38;22.50;;;12.80;;
79373;SDS011;68844;53.128;17.958;2023-10-19T06:56:04;22.70;;;13.20;;
79373;SDS011;68844;53.128;17.958;2023-10-19T06:58:34;24.60;;;13.00;;
79373;SDS011;68844;53.128;17.958;2023-10-19T07:01:01;23.50;;;13.30;;
79373;SDS011;68844;53.128;17.958;2023-10-19T07:03:37;21.70;;;11.00;;
79373;SDS011;68844;53.128;17.958;2023-10-19T07:06:04;15.00;;;8.70;;
79373;SDS011;68844;53.128;17.958;2023-10-19T07:08:33;21.40;;;12.30;;
79373;SDS011;68844;53.128;17.958;2023-10-19T07:11:00;23.30;;;10.20;;
79373;SDS011;68844;53.128;17.958;2023-10-19T07:13:26;25.00;;;12.50;;
79373;SDS011;68844;53.128;17.958;2023-10-19T07:15:53;19.50;;;11.70;;
79373;SDS011;68844;53.128;17.958;2023-10-19T07:18:21;19.80;;;10.40;;
79373;SDS011;68844;53.128;17.958;2023-10-19T07:20:48;20.00;;;9.90;;
79373;SDS011;68844;53.128;17.958;2023-10-19T07:23:16;20.30;;;11.90;;
79373;SDS011;68844;53.128;17.958;2023-10-19T07:25:49;21.30;;;12.50;;
79373;SDS011;68844;53.128;17.958;2023-10-19T07:28:20;22.50;;;11.90;;
79373;SDS011;68844;53.128;17.958;2023-10-19T07:30:48;20.70;;;11.70;;
79373;SDS011;68844;53.128;17.958;2023-10-19T07:33:15;15.00;;;8.20;;
79373;SDS011;68844;53.128;17.958;2023-10-19T07:35:45;22.60;;;12.10;;
79373;SDS011;68844;53.128;17.958;2023-10-19T07:40:40;14.00;;;8.50;;
79373;SDS011;68844;53.128;17.958;2023-10-19T07:43:07;20.10;;;12.70;;
79373;SDS011;68844;53.128;17.958;2023-10-19T07:45:34;18.10;;;10.50;;
79373;SDS011;68844;53.128;17.958;2023-10-19T07:48:03;20.90;;;12.70;;
79373;SDS011;68844;53.128;17.958;2023-10-19T07:50:36;31.20;;;13.20;;
79373;SDS011;68844;53.128;17.958;2023-10-19T07:53:04;29.50;;;15.90;;
79373;SDS011;68844;53.128;17.958;2023-10-19T07:55:31;41.80;;;21.40;;
79373;SDS011;68844;53.128;17.958;2023-10-19T07:58:00;37.60;;;16.50;;
79373;SDS011;68844;53.128;17.958;2023-10-19T08:00:28;28.20;;;14.90;;
79373;SDS011;68844;53.128;17.958;2023-10-19T08:03:00;19.90;;;10.60;;
79373;SDS011;68844;53.128;17.958;2023-10-19T08:05:28;15.00;;;9.10;;
79373;SDS011;68844;53.128;17.958;2023-10-19T08:07:55;19.70;;;9.70;;
79373;SDS011;68844;53.128;17.958;2023-10-19T08:12:51;20.90;;;10.70;;
79373;SDS011;68844;53.128;17.958;2023-10-19T08:15:19;16.40;;;9.60;;
79373;SDS011;68844;53.128;17.958;2023-10-19T08:17:47;20.70;;;12.40;;
79373;SDS011;68844;53.128;17.958;2023-10-19T08:20:21;17.30;;;10.10;;
79373;SDS011;68844;53.128;17.958;2023-10-19T08:22:50;13.50;;;7.70;;
79373;SDS011;68844;53.128;17.958;2023-10-19T08:25:18;20.60;;;11.80;;
79373;SDS011;68844;53.128;17.958;2023-10-19T08:27:45;13.30;;;7.40;;
79373;SDS011;68844;53.128;17.958;2023-10-19T08:30:15;15.00;;;9.30;;
79373;SDS011;68844;53.128;17.958;2023-10-19T08:32:44;11.70;;;6.80;;
79373;SDS011;68844;53.128;17.958;2023-10-19T08:35:14;15.90;;;9.10;;
79373;SDS011;68844;53.128;17.958;2023-10-19T08:37:44;17.80;;;10.70;;
79373;SDS011;68844;53.128;17.958;2023-10-19T08:40:12;15.40;;;7.30;;
79373;SDS011;68844;53.128;17.958;2023-10-19T08:42:41;16.00;;;8.60;;
79373;SDS011;68844;53.128;17.958;2023-10-19T08:45:09;18.20;;;11.80;;
79373;SDS011;68844;53.128;17.958;2023-10-19T08:47:43;16.70;;;9.90;;
79373;SDS011;68844;53.128;17.958;2023-10-19T08:50:15;21.00;;;12.40;;
79373;SDS011;68844;53.128;17.958;2023-10-19T08:52:41;19.00;;;9.90;;
79373;SDS011;68844;53.128;17.958;2023-10-19T08:55:09;18.30;;;10.00;;
79373;SDS011;68844;53.128;17.958;2023-10-19T08:57:39;18.50;;;11.30;;
79373;SDS011;68844;53.128;17.958;2023-10-19T09:00:06;15.50;;;9.20;;
79373;SDS011;68844;53.128;17.958;2023-10-19T09:02:34;22.70;;;11.80;;
79373;SDS011;68844;53.128;17.958;2023-10-19T09:05:05;13.80;;;7.40;;
79373;SDS011;68844;53.128;17.958;2023-10-19T09:07:33;18.30;;;9.90;;
79373;SDS011;68844;53.128;17.958;2023-10-19T09:10:00;14.20;;;8.50;;
79373;SDS011;68844;53.128;17.958;2023-10-19T09:12:27;16.10;;;8.50;;
79373;SDS011;68844;53.128;17.958;2023-10-19T09:14:54;12.70;;;7.90;;
79373;SDS011;68844;53.128;17.958;2023-10-19T09:17:29;17.70;;;9.30;;
79373;SDS011;68844;53.128;17.958;2023-10-19T09:19:58;16.30;;;8.70;;
79373;SDS011;68844;53.128;17.958;2023-10-19T09:22:34;17.40;;;9.60;;
79373;SDS011;68844;53.128;17.958;2023-10-19T09:25:03;16.90;;;9.60;;
79373;SDS011;68844;53.128;17.958;2023-10-19T09:27:33;15.60;;;7.90;;
79373;SDS011;68844;53.128;17.958;2023-10-19T09:30:00;16.60;;;9.40;;
79373;SDS011;68844;53.128;17.958;2023-10-19T09:34:55;13.50;;;7.90;;
79373;SDS011;68844;53.128;17.958;2023-10-19T09:37:22;20.00;;;9.60;;
79373;SDS011;68844;53.128;17.958;2023-10-19T09:39:50;14.80;;;7.30;;
79373;SDS011;68844;53.128;17.958;2023-10-19T09:42:18;13.50;;;7.00;;
79373;SDS011;68844;53.128;17.958;2023-10-19T09:44:47;16.60;;;7.80;;
79373;SDS011;68844;53.128;17.958;2023-10-19T09:47:22;17.20;;;10.50;;
79373;SDS011;68844;53.128;17.958;2023-10-19T09:49:57;17.10;;;9.30;;
79373;SDS011;68844;53.128;17.958;2023-10-19T09:52:23;15.30;;;9.10;;
79373;SDS011;68844;53.128;17.958;2023-10-19T09:54:54;21.80;;;13.90;;
79373;SDS011;68844;53.128;17.958;2023-10-19T09:57:37;23.80;;;13.80;;
79373;SDS011;68844;53.128;17.958;2023-10-19T10:00:09;21.30;;;11.60;;
79373;SDS011;68844;53.128;17.958;2023-10-19T10:02:39;13.80;;;7.00;;
79373;SDS011;68844;53.128;17.958;2023-10-19T10:10:45;17.60;;;7.50;;
79373;SDS011;68844;53.128;17.958;2023-10-19T10:15:55;16.40;;;9.90;;
79373;SDS011;68844;53.128;17.958;2023-10-19T10:18:23;16.00;;;10.10;;
79373;SDS011;68844;53.128;17.958;2023-10-19T10:26:11;13.80;;;10.30;;
79373;SDS011;68844;53.128;17.958;2023-10-19T10:28:40;13.90;;;7.80;;
79373;SDS011;68844;53.128;17.958;2023-10-19T10:33:51;15.00;;;9.40;;
79373;SDS011;68844;53.128;17.958;2023-10-19T10:36:21;14.40;;;8.90;;
79373;SDS011;68844;53.128;17.958;2023-10-19T10:38:48;16.70;;;10.10;;
79373;SDS011;68844;53.128;17.958;2023-10-19T10:41:23;9.50;;;6.30;;
79373;SDS011;68844;53.128;17.958;2023-10-19T10:43:58;12.30;;;8.50;;
79373;SDS011;68844;53.128;17.958;2023-10-19T10:46:25;10.00;;;7.40;;
79373;SDS011;68844;53.128;17.958;2023-10-19T10:48:56;13.90;;;8.10;;
79373;SDS011;68844;53.128;17.958;2023-10-19T10:51:26;13.50;;;8.00;;
79373;SDS011;68844;53.128;17.958;2023-10-19T10:53:57;31.40;;;14.20;;
79373;SDS011;68844;53.128;17.958;2023-10-19T10:56:24;15.20;;;9.30;;
79373;SDS011;68844;53.128;17.958;2023-10-19T10:58:51;15.80;;;9.60;;
79373;SDS011;68844;53.128;17.958;2023-10-19T11:01:30;13.50;;;8.80;;
79373;SDS011;68844;53.128;17.958;2023-10-19T11:04:08;10.20;;;5.80;;
79373;SDS011;68844;53.128;17.958;2023-10-19T11:06:50;15.90;;;7.90;;
79373;SDS011;68844;53.128;17.958;2023-10-19T11:09:19;13.90;;;8.50;;
79373;SDS011;68844;53.128;17.958;2023-10-19T11:11:45;13.70;;;8.50;;
79373;SDS011;68844;53.128;17.958;2023-10-19T11:14:12;12.50;;;7.80;;
79373;SDS011;68844;53.128;17.958;2023-10-19T11:16:39;13.00;;;7.50;;
79373;SDS011;68844;53.128;17.958;2023-10-19T11:19:06;12.60;;;7.00;;
79373;SDS011;68844;53.128;17.958;2023-10-19T11:21:33;12.60;;;8.80;;
79373;SDS011;68844;53.128;17.958;2023-10-19T11:24:00;14.50;;;8.30;;
79373;SDS011;68844;53.128;17.958;2023-10-19T11:26:28;12.00;;;6.20;;
79373;SDS011;68844;53.128;17.958;2023-10-19T11:29:01;12.30;;;7.00;;
79373;SDS011;68844;53.128;17.958;2023-10-19T11:31:30;11.50;;;7.40;;
79373;SDS011;68844;53.128;17.958;2023-10-19T11:34:04;16.10;;;8.30;;
79373;SDS011;68844;53.128;17.958;2023-10-19T11:36:30;10.10;;;7.60;;
79373;SDS011;68844;53.128;17.958;2023-10-19T11:38:57;11.30;;;7.60;;
79373;SDS011;68844;53.128;17.958;2023-10-19T11:41:24;14.50;;;9.50;;
79373;SDS011;68844;53.128;17.958;2023-10-19T11:43:50;9.20;;;6.00;;
79373;SDS011;68844;53.128;17.958;2023-10-19T11:46:17;14.00;;;8.90;;
79373;SDS011;68844;53.128;17.958;2023-10-19T11:48:51;13.70;;;8.10;;
79373;SDS011;68844;53.128;17.958;2023-10-19T11:51:18;14.00;;;8.30;;
79373;SDS011;68844;53.128;17.958;2023-10-19T11:53:44;11.90;;;6.60;;
79373;SDS011;68844;53.128;17.958;2023-10-19T11:56:12;12.70;;;7.20;;
79373;SDS011;68844;53.128;17.958;2023-10-19T11:58:39;9.50;;;6.10;;
79373;SDS011;68844;53.128;17.958;2023-10-19T12:01:09;16.70;;;8.20;;
79373;SDS011;68844;53.128;17.958;2023-10-19T12:03:40;11.90;;;7.90;;
79373;SDS011;68844;53.128;17.958;2023-10-19T12:06:07;15.70;;;8.70;;
79373;SDS011;68844;53.128;17.958;2023-10-19T12:08:35;13.50;;;7.00;;
79373;SDS011;68844;53.128;17.958;2023-10-19T12:11:03;13.50;;;7.90;;
79373;SDS011;68844;53.128;17.958;2023-10-19T12:13:30;12.80;;;7.60;;
79373;SDS011;68844;53.128;17.958;2023-10-19T12:15:57;13.40;;;6.80;;
79373;SDS011;68844;53.128;17.958;2023-10-19T12:18:24;14.30;;;8.00;;
79373;SDS011;68844;53.128;17.958;2023-10-19T12:20:55;10.10;;;6.30;;
79373;SDS011;68844;53.128;17.958;2023-10-19T12:23:25;12.90;;;7.30;;
79373;SDS011;68844;53.128;17.958;2023-10-19T12:25:52;14.80;;;8.20;;
79373;SDS011;68844;53.128;17.958;2023-10-19T12:28:19;12.60;;;7.30;;
79373;SDS011;68844;53.128;17.958;2023-10-19T12:30:46;13.40;;;8.70;;
79373;SDS011;68844;53.128;17.958;2023-10-19T12:33:13;12.50;;;7.00;;
79373;SDS011;68844;53.128;17.958;2023-10-19T12:35:40;16.30;;;9.80;;
79373;SDS011;68844;53.128;17.958;2023-10-19T12:38:26;13.50;;;7.50;;
79373;SDS011;68844;53.128;17.958;2023-10-19T12:40:53;14.10;;;8.20;;
79373;SDS011;68844;53.128;17.958;2023-10-19T12:43:20;12.60;;;6.70;;
79373;SDS011;68844;53.128;17.958;2023-10-19T12:45:51;12.80;;;7.90;;
79373;SDS011;68844;53.128;17.958;2023-10-19T12:48:21;15.30;;;8.50;;
79373;SDS011;68844;53.128;17.958;2023-10-19T12:50:47;13.60;;;7.40;;
79373;SDS011;68844;53.128;17.958;2023-10-19T12:53:15;13.30;;;8.80;;
79373;SDS011;68844;53.128;17.958;2023-10-19T12:55:42;10.90;;;6.60;;
79373;SDS011;68844;53.128;17.958;2023-10-19T12:58:10;12.20;;;8.90;;
79373;SDS011;68844;53.128;17.958;2023-10-19T13:00:38;14.30;;;8.70;;
79373;SDS011;68844;53.128;17.958;2023-10-19T13:03:10;15.90;;;7.20;;
79373;SDS011;68844;53.128;17.958;2023-10-19T13:05:40;14.80;;;7.50;;
79373;SDS011;68844;53.128;17.958;2023-10-19T13:08:08;20.80;;;10.40;;
79373;SDS011;68844;53.128;17.958;2023-10-19T13:10:35;13.80;;;8.60;;
79373;SDS011;68844;53.128;17.958;2023-10-19T13:13:07;16.70;;;9.60;;
79373;SDS011;68844;53.128;17.958;2023-10-19T13:15:38;11.80;;;7.30;;
79373;SDS011;68844;53.128;17.958;2023-10-19T13:18:06;10.30;;;6.50;;
79373;SDS011;68844;53.128;17.958;2023-10-19T13:20:36;12.20;;;6.70;;
79373;SDS011;68844;53.128;17.958;2023-10-19T13:23:04;10.90;;;6.20;;
79373;SDS011;68844;53.128;17.958;2023-10-19T13:25:38;10.50;;;6.60;;
79373;SDS011;68844;53.128;17.958;2023-10-19T13:28:13;12.00;;;7.50;;
79373;SDS011;68844;53.128;17.958;2023-10-19T13:30:47;9.00;;;5.70;;
79373;SDS011;68844;53.128;17.958;2023-10-19T13:35:43;8.40;;;4.60;;
79373;SDS011;68844;53.128;17.958;2023-10-19T13:38:10;11.80;;;7.20;;
79373;SDS011;68844;53.128;17.958;2023-10-19T13:40:40;11.30;;;6.20;;
79373;SDS011;68844;53.128;17.958;2023-10-19T13:43:08;8.30;;;5.60;;
79373;SDS011;68844;53.128;17.958;2023-10-19T13:45:40;8.90;;;5.40;;
79373;SDS011;68844;53.128;17.958;2023-10-19T13:48:09;8.20;;;5.60;;
79373;SDS011;68844;53.128;17.958;2023-10-19T13:50:44;11.60;;;6.20;;
79373;SDS011;68844;53.128;17.958;2023-10-19T13:53:19;7.70;;;4.90;;
79373;SDS011;68844;53.128;17.958;2023-10-19T13:55:45;9.00;;;6.20;;
79373;SDS011;68844;53.128;17.958;2023-10-19T13:58:12;7.50;;;5.00;;
79373;SDS011;68844;53.128;17.958;2023-10-19T14:00:42;7.70;;;5.20;;
79373;SDS011;68844;53.128;17.958;2023-10-19T14:03:10;8.30;;;6.20;;
79373;SDS011;68844;53.128;17.958;2023-10-19T14:05:40;7.20;;;5.00;;
79373;SDS011;68844;53.128;17.958;2023-10-19T14:08:14;7.40;;;4.30;;
79373;SDS011;68844;53.128;17.958;2023-10-19T14:15:37;9.50;;;5.90;;
79373;SDS011;68844;53.128;17.958;2023-10-19T14:18:05;15.30;;;6.30;;
79373;SDS011;68844;53.128;17.958;2023-10-19T14:20:32;6.70;;;4.80;;
79373;SDS011;68844;53.128;17.958;2023-10-19T14:25:27;7.80;;;4.70;;
79373;SDS011;68844;53.128;17.958;2023-10-19T14:27:54;8.70;;;5.30;;
79373;SDS011;68844;53.128;17.958;2023-10-19T14:30:26;8.60;;;6.20;;
79373;SDS011;68844;53.128;17.958;2023-10-19T14:32:57;8.60;;;4.90;;
79373;SDS011;68844;53.128;17.958;2023-10-19T14:35:24;7.70;;;5.50;;
79373;SDS011;68844;53.128;17.958;2023-10-19T14:37:54;9.60;;;6.50;;
79373;SDS011;68844;53.128;17.958;2023-10-19T14:40:25;10.80;;;6.40;;
79373;SDS011;68844;53.128;17.958;2023-10-19T14:42:53;10.50;;;6.10;;
79373;SDS011;68844;53.128;17.958;2023-10-19T14:45:21;6.90;;;4.10;;
79373;SDS011;68844;53.128;17.958;2023-10-19T14:47:52;9.70;;;6.00;;
79373;SDS011;68844;53.128;17.958;2023-10-19T14:50:24;11.80;;;6.10;;
79373;SDS011;68844;53.128;17.958;2023-10-19T14:55:20;8.90;;;5.20;;
79373;SDS011;68844;53.128;17.958;2023-10-19T14:57:48;7.60;;;5.10;;
79373;SDS011;68844;53.128;17.958;2023-10-19T15:00:19;9.80;;;5.60;;
79373;SDS011;68844;53.128;17.958;2023-10-19T15:03:08;8.20;;;5.10;;
79373;SDS011;68844;53.128;17.958;2023-10-19T15:05:36;8.20;;;4.50;;
79373;SDS011;68844;53.128;17.958;2023-10-19T15:08:03;7.40;;;4.20;;
79373;SDS011;68844;53.128;17.958;2023-10-19T15:10:34;7.70;;;4.30;;
79373;SDS011;68844;53.128;17.958;2023-10-19T15:13:01;7.50;;;3.30;;
79373;SDS011;68844;53.128;17.958;2023-10-19T15:15:29;5.80;;;4.30;;
79373;SDS011;68844;53.128;17.958;2023-10-19T15:17:56;6.70;;;3.50;;
79373;SDS011;68844;53.128;17.958;2023-10-19T15:20:28;6.30;;;4.60;;
79373;SDS011;68844;53.128;17.958;2023-10-19T15:22:56;6.50;;;4.10;;
79373;SDS011;68844;53.128;17.958;2023-10-19T15:25:23;7.20;;;4.70;;